x

South Hatteras - 225 South Of Cape Hatteras (41002) Wave Buoy

4:50am - Tue 17th Jan 2017 All times are EST. -5 hours from GMT.

  • Sig Wave height 3.6ft
  • Swell Direction
  • Peak Period 9s
  • Average Period 6s
  • Wind
    16mph, 18mph gusts
  • Sea Temp 72°f
  • 空気 Temp 71°f
  • Sea Pressure 1024.7mb
  • South Hatteras - 225 South Of Cape Hatteras
  • South Hatteras - 225 South Of Cape Hatteras

More Historic Weather Station data

Upgrade to MSW Pro to gain access to the past 30 days of data for over 8000 Wavebouys and Weather Stations around the globe.

Join Pro

Comparision Forecast

View Surf forecast
   
Tue 01/17 4:50am 3.5ft 9s 6s 16 18 mph 1024.7mb 72f 71f
3:50am 3.5ft 10s 6s 16 18 mph 1024.9mb 72f 71f
2:50am 3.5ft 8s 6s 16 18 mph 1025.4mb 72f 71f
1:50am 3.5ft 8s 6s 13 18 mph 1025.5mb 72f 70f
12:50am 3.5ft 8s 6s 13 16 mph 1025.5mb 72f 70f
Mon 01/16 11:50pm 3.5ft 8s 6s 16 18 mph 1025.7mb 71f 70f
10:50pm 3.5ft 8s 7s 11 13 mph 1026.4mb 71f 70f
9:50pm 3.5ft 8s 7s 11 13 mph 1027mb 71f 70f
8:50pm 3.5ft 8s 7s 9 11 mph 1027.3mb 71f 70f
7:50pm 3.5ft 8s 7s 9 11 mph 1027.1mb 71f 70f
6:50pm 4ft 8s 7s 9 11 mph 1027mb 71f 70f
5:50pm 3.5ft 8s 7s 9 11 mph 1026.7mb 71f 69f
4:50pm 4ft 8s 7s 7 9 mph 1026.9mb 72f 69f
3:50pm 3.5ft 8s 7s 7 9 mph 1026.3mb 72f 70f
2:50pm 3.5ft 8s 7s 7 9 mph 1026.2mb 72f 70f
1:50pm 4ft 8s 7s 7 9 mph 1026.1mb 72f 69f
12:50pm 4ft 9s 7s 7 9 mph 1026.2mb 72f 69f
11:50am 4ft 8s 7s 7 9 mph 1027mb 72f 69f
10:50am 4ft 9s 7s 7 9 mph 1027.8mb 71f 69f
9:50am 3.5ft 8s 7s 4 7 mph 1027.9mb 71f 69f
8:50am 4ft 9s 7s 4 7 mph 1027.5mb 71f 69f
7:50am 3.5ft 7s 7s 4
mph
1027mb 71f 69f
6:50am 4ft 11s 7s  -  mph 1026.8mb 71f 68f
5:50am 3.5ft 11s 6s 2 4 mph 1026.3mb 71f 68f
4:50am 4ft 9s 6s 4 7 mph 1025.8mb 71f 68f
3:50am 4ft 8s 6s 9 11 mph 1025.6mb 71f 68f
2:50am 4.5ft 10s 6s 7 9 mph 1025.6mb 71f 68f
1:50am 4.5ft 6s 6s 9 11 mph 1025.7mb 71f 68f
12:50am 4.5ft 11s 6s 11 13 mph 1025.5mb 71f 68f
Sun 01/15 11:50pm 4.5ft 8s 6s 9 11 mph 1025.7mb 71f 69f
10:50pm 4.5ft 11s 6s 9 11 mph 1026.1mb 71f 69f
9:50pm 4.5ft 11s 6s 11 13 mph 1026.1mb 71f 69f
8:50pm 4.5ft 11s 6s 9 11 mph 1026mb 72f 69f
7:50pm 4.5ft 10s 6s 9 11 mph 1025.7mb 71f 69f
6:50pm 4.5ft 11s 6s 9 13 mph 1025.2mb 72f 69f
5:50pm 4.5ft 11s 6s 9 11 mph 1024.9mb 72f 69f
4:50pm 4.5ft 11s 6s 9 11 mph 1024.6mb 72f 69f
3:50pm 4.5ft 11s 6s 11 13 mph 1024.1mb 72f 69f
2:50pm 4.5ft 8s 6s 13 16 mph 1023.8mb 72f 69f
1:50pm 4.5ft 11s 6s 9 11 mph 1024.1mb 72f 70f
12:50pm 4.5ft 11s 6s 7 11 mph 1024.6mb 71f 70f
11:50am 4.5ft 8s 6s 7 9 mph 1025.2mb 71f 70f
10:50am 4.5ft 11s 6s 11 13 mph 1026.1mb 71f 71f
9:50am 4.5ft 11s 7s 9 11 mph 1026.3mb 71f 71f
8:50am 4.5ft 11s 6s 13 16 mph 1026.1mb 71f 71f
7:50am 4.5ft 11s 7s 11 13 mph 1025.8mb 71f 71f
6:50am 4.5ft 9s 7s 9 11 mph 1025.2mb 71f 71f
5:50am 5ft 9s 7s 11 13 mph 1024.7mb 71f 71f
4:50am 5ft 11s 7s 9 11 mph 1024.8mb 71f 71f
3:50am 5ft 11s 6s 9 11 mph 1024.8mb 70f 70f
2:50am 5ft 10s 6s 13
mph
1025.4mb 70f 70f
1:50am 5.5ft 12s 6s 13 18 mph 1025.8mb 70f 71f
12:50am 5ft 11s 6s 13 18 mph 1026mb 70f 71f
Sat 01/14 11:50pm 5.5ft 12s 7s 13 16 mph 1026.7mb 71f 71f
10:50pm 5ft 9s 7s 13 18 mph 1027.3mb 71f 71f
9:50pm 5.5ft 9s 7s 13 18 mph 1027.5mb 71f 71f
8:50pm 5.5ft 11s 7s 11 13 mph 1027.6mb 71f 71f
7:50pm 5.5ft 11s 7s 11 13 mph 1027.7mb 71f 71f
6:50pm 5.5ft 11s 7s 11
mph
1027.5mb 71f 71f
5:50pm 5ft 10s 7s 11 13 mph 1027.4mb 71f 71f
4:50pm 5ft 12s 8s 9 11 mph 1027.6mb 71f 71f
3:50pm 5ft 12s 8s 9 11 mph 1027.7mb 71f 71f
2:50pm 5ft 10s 8s 9 11 mph 1027.7mb 72f 71f
1:50pm 5ft 11s 8s 7 9 mph 1027.9mb 72f 71f
12:50pm 5ft 11s 8s 7 9 mph 1028.7mb 72f 71f
11:50am 5.5ft 11s 8s 4 7 mph 1029.5mb 72f 71f
10:50am 6ft 11s 8s 2 7 mph 1030.5mb 72f 71f
9:50am 6ft 12s 8s 4
mph
1030.9mb 72f 71f
8:50am 6ft 13s 8s 2 4 mph 1030.6mb 71f 71f
7:50am 6ft 12s 8s 4 7 mph 1030.3mb 71f 70f
6:50am 6ft 11s 8s 4 7 mph 1030mb 72f 70f
5:50am 6ft 12s 8s 4 7 mph 1029.7mb 72f 70f
4:50am 6ft 12s 8s 7 9 mph 1029.8mb 72f 70f
3:50am 6ft 13s 8s 4 7 mph 1030.1mb 72f 70f
2:50am 6.5ft 12s 9s 7 9 mph 1030.4mb 72f 70f
1:50am 6ft 11s 8s 7 9 mph 1030.8mb 72f 70f
12:50am 6ft 10s 8s 4 9 mph 1030.8mb 72f 70f
Fri 01/13 11:50pm 5.5ft 13s 8s 4 7 mph 1031.3mb 72f 70f
10:50pm 6ft 11s 8s 4
mph
1031.6mb 72f 70f
9:50pm 6ft 13s 8s 4 7 mph 1031.8mb 72f 70f
8:50pm 6ft 11s 8s  -  2 mph 1031.9mb 72f 70f
7:50pm 6ft 13s 8s 2 4 mph 1031.8mb 72f 70f
6:50pm 6.5ft 11s 9s 2 4 mph 1031.6mb 72f 70f
5:50pm 6.5ft 12s 9s 4 7 mph 1031.3mb 72f 70f
4:50pm 7ft 12s 9s 4 7 mph 1031mb 73f 70f
3:50pm 6.5ft 11s 9s 7 9 mph 1030.6mb 73f 70f
2:50pm 6.5ft 12s 8s 7 9 mph 1030.6mb 73f 70f
1:50pm 6.5ft 11s 8s 2 7 mph 1030.8mb 73f 70f
12:50pm 6ft 13s 8s 4 7 mph 1031.3mb 73f 70f
11:50am 6ft 12s 8s 4 7 mph 1032mb 73f 70f